Aviation Digital Data Service (ADDS)

Output produced by METARs form (1938 UTC 25 March 2017)
found at http://www.aviationweather.gov/adds/metars/
 
DAUA 251900Z 18007KT 8000 SCT046 SCT133 28/// Q1014
TAF DAUA 251700Z 2518/2618 22010KT 8000 NSC 
     BECMG 2602/2604 30010KT
       
DABB 251930Z 07003KT 9999 FEW026 11/09 Q1021
TAF DABB 251700Z 2518/2618 04010KT 9999 SCT020 
     BECMG 2521/2524 VRB02KT 
     TEMPO 2600/2608 2000 BR SCT006 SCT010 
     PROB30 
     TEMPO 2602/2608 0600 FG BKN004 
     BECMG 2609/2612 06014KT
       
DABT 251900Z 07009KT CAVOK 13/04 Q1020
TAF DABT 251700Z 2518/2618 30012KT CAVOK 
     BECMG 2521/2524 VRB02KT 
     TEMPO 2600/2607 2000 BR SCT006 SCT010
       
DAOR 251900Z 17009KT CAVOK 18/M01 Q1016
TAF DAOR 251700Z 2518/2603 14012KT CAVOK 
     BECMG 2518/2521 01010KT
       
DAAE 251900Z 18004KT CAVOK 11/08 Q1020
TAF DAAE 251700Z 2518/2618 14010KT CAVOK 
     TEMPO 2600/2607 VRB02KT 2000 BR SCT008 
     BECMG 2609/2612 32010KT
       
DAUB 251900Z 32010KT CAVOK 20/M05 Q1017
TAF DAUB 251700Z 2518/2618 32020KT 8000 NSC 
     BECMG 2520/2522 32010KT 
     BECMG 2603/2606 12006KT
       
TAF DATM 251400Z 2515/2524 30012KT CAVOK
       
DAAD 251800Z 06004KT CAVOK 17/00 Q1019
TAF DAAD 251700Z 2518/2603 VRB02KT CAVOK
       
DAOI 251900Z 04004KT CAVOK 14/08 Q1016
TAF DAOI 251700Z 2518/2618 VRB02KT CAVOK 
     TEMPO 2514/2521 18010KT 
     BECMG 2610/2612 01012KT
       
DABC 251930Z 08008KT CAVOK 10/05 Q1021
TAF DABC 251700Z 2518/2618 06010KT CAVOK 
     BECMG 2521/2524 VRB02KT 
     TEMPO 2600/2607 2000 BR SCT006 SCT010 
     BECMG 2609/2612 28010KT
       
DAAG 251930Z 09003KT CAVOK 11/08 Q1019
TAF DAAG 251700Z 2518/2618 08008KT CAVOK 
     BECMG 2521/2523 17014KT 
     BECMG 2611/2613 01010KT
       
DAAJ 251900Z 00000KT CAVOK 25/M02 Q1020
TAF DAAJ 251700Z 2518/2618 VRB02KT CAVOK 
     BECMG 2608/2611 26010KT
       
DAUE 251900Z 05006KT CAVOK 20/03 Q1018
DAUO 251900Z 28002KT CAVOK 19/04 Q1018
TAF DAUO 251700Z 2518/2603 32010KT CAVOK
       
DAUG 251900Z 11005KT CAVOK 21/M12 Q1018
TAF DAUG 251700Z 2518/2618 06010KT CAVOK 
     BECMG 2512/2515 13010KT
       
DAUH 251930Z 04005KT CAVOK 21/M09 Q1018
TAF DAUH 251700Z 2518/2618 04012KT 8000 NSC 
     TEMPO 2522/2610 3000 HZ
       
DAAP 251900Z 08006KT CAVOK 28/01 Q1016
TAF DAAP 251700Z 2518/2603 06010KT CAVOK
       
DAUZ 251900Z 03003KT CAVOK 26/M05 Q1018
TAF DAUZ 251700Z 2518/2618 VRB02KT CAVOK 
     BECMG 2602/2604 14014KT 
     PROB30 2610/2615 3000 HZ 
     BECMG 2614/2617 26012KT
       
TAF DAUI 251700Z 2518/2618 20010KT 8000 NSC 
     BECMG 2602/2604 29010KT
       
DAAV 251900Z 16003KT CAVOK 13/08 Q1020
TAF DAAV 251700Z 2518/2618 30010KT CAVOK 
     BECMG 2520/2522 14006KT 
     TEMPO 2600/2607 2000 BR SCT008 
     BECMG 2609/2612 32010KT
       
DAUL 251900Z 12004KT CAVOK 17/M02 Q1018
TAF DAUL 251700Z 2518/2603 18010KT CAVOK 
     BECMG 2600/2603 VRB02KT
       
DAOV 251900Z 00000KT 9999 FEW030 SCT100 14/06 Q1015
TAF DAOV 251700Z 2518/2603 19010KT 9999 FEW030 SCT233
       
DAAY 251900Z 18014KT CAVOK 12/M08 Q1020
TAF DAAY 251700Z 2518/2603 17018KT CAVOK 
     TEMPO 2521/2603 VRB02KT
       
DAOO 251930Z 05004KT 9999 FEW026 SCT233 15/04 Q1015
TAF DAOO 251700Z 2518/2618 36013KT 9999 FEW026 
     BECMG 2600/2603 24012KT 
     PROB30 
     TEMPO 2603/2607 VRB02KT 4000 BR SCT010 
     BECMG 2609/2612 01012KT
       
DAOL 251900Z 10008KT 9999 SCT030 13/05 Q1016
DAUU 251900Z 06006KT CAVOK 20/M10 Q1017
TAF DAUU 251700Z 2518/2603 02012KT CAVOK
       
DAAS 251900Z 02010KT 9999 FEW030 SCT233 11/M00 Q1020
TAF DAAS 251700Z 2518/2618 30010KT CAVOK 
     BECMG 2521/2524 VRB02KT 
     TEMPO 2600/2607 2000 BR SCT006 SCT010
       
DAAT 251930Z 17008KT CAVOK 25/M07 Q1022
TAF DAAT 251700Z 2518/2618 30010KT CAVOK 
     BECMG 2520/2523 04010KT 
     BECMG 2610/2613 30014KT
       
DABS 251900Z 10004KT 9999 FEW026 SCT033 12/07 Q1021
TAF DABS 251700Z 2518/2618 34008KT 9999 FEW026 
     BECMG 2521/2524 VRB02KT 
     PROB40 
     TEMPO 2602/2608 3000 BR SCT008 
     BECMG 2609/2612 32010KT
       
DAOB 251900Z 18006KT CAVOK 11/07 Q1017
TAF DAOB 251700Z 2518/2618 20010KT CAVOK 
     BECMG 2518/2521 10010KT 
     BECMG 2611/2614 18010KT
       
DAFH 251800Z 17010KT CAVOK 19/M03 Q1019
TAF DAFH 251700Z 2518/2603 11010KT CAVOK
       
DAUT 251900Z 04012KT 9000 NSC 26/M04 Q1015
TAF DAUT 251700Z 2518/2603 06014KT 8000 NSC 
     BECMG 2523/2602 VRB02KT
       
DAOF 251900Z 34008KT 9999 FEW046 22/M03 Q1015
TAF DAOF 251700Z 2518/2603 28014KT 9999 FEW046
       
DAON 251930Z 31006KT 280V340 9999 FEW026 SCT100 13/08 Q1016
TAF DAON 251700Z 2518/2618 34010KT 9999 FEW026 
     BECMG 2520/2523 VRB02KT 
     BECMG 2610/2612 01012KT
       
DAUK 251900Z 03003KT CAVOK 19/03 Q1018
TAF DAUK 251700Z 2518/2603 34012KT CAVOK